Latest Coastal Weather Observations for Avalon

IDV60701

Issued at 10:15 am EDT Saturday 25 October 2014 (issued every 10 minutes, with the page automatically refreshed every 10 minutes)

About coastal observations | Map of coastal stations | Coastal observations for VIC | Marine services | Other Formats
Station Details ID: 087113 Name: AVALON AIRPORT Lat: -38.03 Lon: 144.48 Height: 10.6 m
Data from the previous 72 hours. | See also: Recent months at Avalon
Date/Time
EDT
Temp

°C
Wind Pressure Rain
since 9am
mm
Weather Cloud Vis
km
Sea
Height
m
Swell
Dir
 
Speed
knots
Gust
knots
hPa Trend Height
m
Period
s
Dir
25/10:00am 15.6 S 9 11 1017.8 - 0.0 - Cloudy 10 - - - -
25/09:30am 15.3 S 11 14 1017.8 - 0.0 - Cloudy 10 - - - -
25/09:00am 14.7 S 9 11 1017.8 - 0.0 - Cloudy 10 - - - -
25/08:30am 14.4 S 8 10 1017.9 - 0.0 - Partly cloudy 10 - - - -
25/08:00am 14.2 S 4 6 1017.8 - 0.0 - Cloudy 10 - - - -
25/07:30am 14.1 W 4 5 1017.5 - 0.0 - Cloudy 10 - - - -
25/07:00am 14.0 W 3 4 1017.3 - 0.0 - Cloudy 10 - - - -
25/06:30am 13.9 WNW 4 4 1017.1 - 0.0 - Cloudy 10 - - - -
25/06:00am 13.9 W 4 5 1016.9 - 0.0 - Cloudy 10 - - - -
25/05:30am 14.0 W 5 6 1016.7 - 0.0 - Cloudy 10 - - - -
25/05:00am 14.1 WSW 6 8 1016.4 - 0.0 - Cloudy 10 - - - -
25/04:30am 14.3 WSW 7 10 1016.3 - 0.0 - Cloudy 10 - - - -
25/04:00am 14.5 W 7 9 1016.3 - 0.0 - Cloudy 10 - - - -
25/03:30am 14.6 W 8 11 1016.2 - 0.0 - Cloudy 10 - - - -
25/03:00am 14.6 W 8 11 1016.2 - 0.0 - Cloudy 10 - - - -
25/02:30am 14.7 WSW 8 11 1016.4 - 0.0 - Cloudy 10 - - - -
25/02:00am 14.6 WSW 10 13 1016.7 - 0.0 - Cloudy 10 - - - -
25/01:30am 14.6 WSW 9 12 1016.7 - 0.0 - Cloudy 10 - - - -
25/01:00am 14.5 WSW 12 16 1016.9 - 0.0 - Cloudy 10 - - - -
25/12:30am 15.0 W 10 13 1016.8 - 0.0 - Cloudy 10 - - - -
25/12:00am 15.1 W 8 11 1016.6 - 0.0 - Cloudy 10 - - - -
 
Date/Time
EDT
Temp

°C
Wind Pressure Rain
since 9am
mm
Weather Cloud Vis
km
Sea
Height
m
Swell
Dir
 
Speed
knots
Gust
knots
hPa Trend Height
m
Period
s
Dir
24/11:30pm 15.0 W 11 15 1016.4 - 0.0 - Cloudy 10 - - - -
24/11:00pm 14.5 W 8 11 1016.2 - 0.0 - Partly cloudy 10 - - - -
24/10:30pm 15.3 W 8 10 1016.2 - 0.0 - Partly cloudy 10 - - - -
24/10:00pm 14.8 WNW 6 9 1015.8 - 0.0 - Partly cloudy 10 - - - -
24/09:30pm 14.2 CALM 0 0 1015.3 - 0.0 - Partly cloudy 10 - - - -
24/09:00pm 14.5 S 5 6 1014.5 - 0.0 - - 10 - - - -
24/08:30pm 14.9 SSW 8 9 1013.7 - 0.0 - - 10 - - - -
24/08:23pm 15.1 S 7 11 1013.6 - 0.0 - Partly cloudy 10 - - - -
24/08:00pm 15.8 S 9 13 1013.1 - 0.0 - Cloudy 10 - - - -
24/07:30pm 15.9 S 11 13 1012.4 - 0.0 - Partly cloudy 8 - - - -
24/07:26pm 15.9 S 12 17 1012.3 - 0.0 - Partly cloudy 8 - - - -
24/07:00pm 16.9 S 13 15 1011.8 - 0.0 - - 10 - - - -
24/06:30pm 19.3 S 12 15 1011.3 - 0.0 - - 10 - - - -
24/06:00pm 21.4 S 11 14 1010.6 - 0.0 - Partly cloudy 10 - - - -
24/05:30pm 22.9 S 13 16 1010.1 - 0.0 - - 10 - - - -
24/05:00pm 24.6 S 16 19 1009.7 - 0.0 - - 10 - - - -
24/04:47pm 26.1 SW 14 17 1009.5 - 0.0 - - 10 - - - -
24/04:30pm 31.7 W 9 10 1009.3 - 0.0 - - 10 - - - -
24/04:00pm 30.9 WSW 9 12 1009.2 - 0.0 - - 10 - - - -
24/03:30pm 31.6 W 13 19 1009.4 - 0.0 - - 10 - - - -
24/03:05pm 31.8 NW 15 25 1009.3 - 0.0 - - 10 - - - -
24/03:00pm 31.9 W 13 20 1009.7 - 0.0 - - 10 - - - -
24/02:30pm 31.1 W 8 14 1009.9 - 0.0 - - 10 - - - -
24/02:00pm 30.0 WSW 7 14 1010.2 - 0.0 - - 10 - - - -
24/01:30pm 29.1 SSW 7 14 1010.5 - 0.0 - - 10 - - - -
24/01:00pm 25.9 ESE 9 11 1010.4 - 0.0 - - 10 - - - -
24/12:30pm 24.2 ESE 8 10 1010.8 - 0.0 - - 10 - - - -
24/12:00pm 24.0 SE 7 10 1011.1 - 0.0 - Mostly cloudy 10 - - - -
24/11:30am 24.6 W 7 11 1011.5 - 0.0 - - 10 - - - -
24/11:00am 22.2 W 4 8 1011.7 - 0.0 - - 10 - - - -
24/10:30am 20.2 NW 3 6 1011.7 - 0.0 - - 10 - - - -
24/10:18am 19.2 ENE 4 7 1011.7 - 0.0 - Partly cloudy 10 - - - -
24/10:00am 17.8 N 2 5 1012.0 - 0.0 - Partly cloudy 10 - - - -
24/09:47am 16.4 N 3 5 1012.0 - 0.0 - Cloudy 8 - - - -
24/09:30am 15.6 NW 2 4 1011.9 - 0.0 - Cloudy 6 - - - -
24/09:00am 14.6 NNW 3 6 1011.9 - 0.0 - Cloudy 2 - - - -
24/08:32am 14.5 NW 4 6 1012.4 - 0.0 - Cloudy 0.9 - - - -
24/08:30am 14.4 NW 4 6 1012.4 - 0.0 - Cloudy 0.8 - - - -
24/08:00am 14.2 NNW 4 5 1012.4 - 0.0 - Cloudy 0.3 - - - -
24/07:30am 13.7 CALM 0 0 1012.2 - 0.0 - Cloudy 0.7 - - - -
24/07:25am 13.4 CALM 0 0 1012.1 - 0.0 - Cloudy 0.6 - - - -
24/07:24am 13.4 CALM 0 0 1012.1 - 0.0 - Cloudy 0.6 - - - -
24/07:00am 11.6 CALM 0 0 1012.2 - 0.0 - Partly cloudy 0.3 - - - -
24/06:54am 11.1 CALM 0 0 1012.2 - 0.0 - Partly cloudy 0.9 - - - -
24/06:46am 10.8 CALM 0 0 1012.2 - 0.0 - Partly cloudy 1 - - - -
24/06:30am 10.5 CALM 0 0 1012.2 - 0.0 - Partly cloudy 0.3 - - - -
24/06:19am 10.2 CALM 0 0 1012.2 - 0.0 - Partly cloudy 1 - - - -
24/06:00am 11.5 CALM 0 0 1012.1 - 0.0 - Cloudy 2 - - - -
24/05:34am 10.9 CALM 0 0 1012.0 - 0.0 - Partly cloudy 4 - - - -
24/05:30am 10.9 CALM 0 0 1012.0 - 0.0 - Partly cloudy 8 - - - -
24/05:00am 10.3 CALM 0 0 1012.3 - 0.0 - - 10 - - - -
24/04:56am 10.7 CALM 0 0 1012.3 - 0.0 - - 10 - - - -
24/04:30am 12.4 SE 2 4 1012.4 - 0.0 - - 5 - - - -
24/04:17am 12.3 SE 3 4 1012.4 - 0.0 - - 1 - - - -
24/04:07am 12.5 ESE 3 4 1012.5 - 0.0 - - 0.8 - - - -
24/04:01am 13.1 E 4 5 1012.5 - 0.0 - - 6 - - - -
24/04:00am 13.0 E 4 5 1012.5 - 0.0 - - 7 - - - -
24/03:30am 13.5 ESE 3 4 1012.8 - 0.0 - - 10 - - - -
24/03:00am 14.0 ESE 6 7 1012.8 - 0.0 - - 10 - - - -
24/02:30am 14.6 ESE 8 11 1013.1 - 0.0 - Partly cloudy 10 - - - -
24/02:00am 14.8 SE 9 11 1013.6 - 0.0 - Partly cloudy 10 - - - -
24/01:30am 15.0 SE 9 11 1014.3 - 0.0 - Partly cloudy 10 - - - -
24/01:00am 15.2 SE 10 12 1014.6 - 0.0 - Partly cloudy 10 - - - -
24/12:30am 15.4 ESE 9 11 1015.1 - 0.0 - - 10 - - - -
24/12:01am 15.6 ESE 12 16 1015.2 - 0.0 - Partly cloudy 10 - - - -
24/12:00am 15.6 ESE 12 16 1015.2 - 0.0 - Mostly clear 10 - - - -
 
Date/Time
EDT
Temp

°C
Wind Pressure Rain
since 9am
mm
Weather Cloud Vis
km
Sea
Height
m
Swell
Dir
 
Speed
knots
Gust
knots
hPa Trend Height
m
Period
s
Dir
23/11:30pm 15.7 SE 12 16 1015.6 - 0.0 - Partly cloudy 10 - - - -
23/11:22pm 15.8 SE 12 16 1015.7 - 0.0 - Cloudy 10 - - - -
23/11:00pm 16.1 SE 12 16 1016.0 - 0.0 - Cloudy 10 - - - -
23/10:30pm 16.3 SE 13 18 1016.3 - 0.0 - Cloudy 10 - - - -
23/10:00pm 16.4 SE 15 19 1016.5 - 0.0 - Cloudy 10 - - - -
23/09:30pm 16.4 SE 14 19 1016.6 - 0.0 - Cloudy 10 - - - -
23/09:00pm 16.4 SE 14 19 1016.5 - 0.0 - Cloudy 10 - - - -
23/08:30pm 16.5 ESE 10 12 1016.3 - 0.0 - Cloudy 10 - - - -
23/08:00pm 16.9 ESE 13 16 1016.2 - 0.0 - Cloudy 10 - - - -
23/07:30pm 17.3 ESE 10 13 1016.1 - 0.0 - Cloudy 10 - - - -
23/07:00pm 17.8 SE 9 13 1016.2 - 0.0 - Cloudy 10 - - - -
23/06:30pm 18.1 SE 8 12 1016.1 - 0.0 - Cloudy 10 - - - -
23/06:00pm 17.4 SSW 7 9 1016.2 - 0.0 - Cloudy 10 - - - -
23/05:30pm 17.5 SSW 9 11 1016.6 - 0.0 - Cloudy 10 - - - -
23/05:00pm 17.2 S 8 11 1016.6 - 0.0 - Cloudy 10 - - - -
23/04:30pm 17.5 S 11 13 1016.8 - 0.0 - Cloudy 10 - - - -
23/04:00pm 18.1 S 10 12 1017.0 - 0.0 - Cloudy 10 - - - -
23/03:30pm 17.7 SE 7 10 1017.5 - 0.0 - Cloudy 10 - - - -
23/03:00pm 17.5 SE 7 10 1017.7 - 0.0 - Cloudy 10 - - - -
23/02:30pm 17.3 ESE 9 12 1018.4 - 0.0 - Cloudy 10 - - - -
23/02:00pm 17.2 ESE 11 13 1018.6 - 0.0 - Cloudy 10 - - - -
23/01:30pm 16.9 SSE 10 13 1018.8 - 0.0 - Cloudy 10 - - - -
23/01:00pm 16.3 SE 9 11 1019.1 - 0.0 - Cloudy 10 - - - -
23/12:30pm 16.0 ESE 8 11 1019.5 - 0.0 - Cloudy 10 - - - -
23/12:00pm 16.1 SE 8 11 1019.9 - 0.0 - Cloudy 10 - - - -
23/11:51am 15.7 ESE 8 11 1019.9 - 0.0 - Cloudy 10 - - - -
23/11:30am 15.6 SSE 7 10 1020.2 - 0.0 - Cloudy 10 - - - -
23/11:00am 15.1 SE 5 7 1020.2 - 0.0 - Cloudy 10 - - - -
23/10:59am 15.1 SE 6 8 1020.2 - 0.0 - Cloudy 10 - - - -
23/10:30am 15.3 ESE 7 9 1020.6 - 0.0 - Cloudy 10 - - - -
23/10:21am 15.2 SE 7 9 1020.7 - 0.0 - Cloudy 10 - - - -
23/10:00am 14.9 SE 7 9 1020.8 - 0.0 - Cloudy 10 - - - -
23/09:30am 14.4 S 6 8 1020.8 - 0.0 - Cloudy 10 - - - -
23/09:00am 14.0 S 9 11 1020.7 - 0.0 - Cloudy 9 - - - -
23/08:30am 14.4 S 10 13 1020.7 - 0.0 - Cloudy 10 - - - -
23/08:00am 14.5 SSW 12 15 1020.4 - 0.0 - Cloudy 10 - - - -
23/07:30am 14.6 S 9 11 1020.3 - 0.0 - Cloudy 10 - - - -
23/07:00am 14.5 S 9 12 1020.1 - 0.0 - Cloudy 10 - - - -
23/06:50am 14.6 S 7 10 1020.1 - 0.0 - Cloudy 10 - - - -
23/06:30am 14.7 SSW 9 11 1019.8 - 0.0 - Cloudy 10 - - - -
23/06:06am 14.6 SSW 9 11 1019.4 - 0.0 - Cloudy 10 - - - -
23/06:00am 14.6 SSW 10 13 1019.4 - 0.0 - Cloudy 10 - - - -
23/05:30am 14.6 SSW 12 15 1019.1 - 0.0 - Cloudy 10 - - - -
23/05:00am 14.7 SSW 11 14 1018.6 - 0.0 - Cloudy 10 - - - -
23/04:30am 14.8 SSW 11 13 1018.8 - 0.0 - Cloudy 10 - - - -
23/04:00am 14.9 SSW 9 12 1019.0 - 0.0 - Cloudy 9 - - - -
23/03:30am 14.9 SSW 8 11 1019.0 - 0.0 - Cloudy 10 - - - -
23/03:00am 14.9 SSW 9 13 1019.3 - 0.0 - Cloudy 10 - - - -
23/02:30am 14.9 SW 8 11 1019.1 - 0.0 - Cloudy 10 - - - -
23/02:00am 14.9 SW 10 13 1019.3 - 0.0 - Cloudy 10 - - - -
23/01:30am 14.9 SW 11 15 1019.3 - 0.0 - Cloudy 10 - - - -
23/01:00am 14.8 SW 12 16 1019.4 - 0.0 - Cloudy 10 - - - -
23/12:30am 14.5 SW 9 11 1019.3 - 0.0 - Partly cloudy 10 - - - -
23/12:00am 14.8 SSW 13 17 1019.0 - 0.0 Drizzle Cloudy 10 - - - -
 
Date/Time
EDT
Temp

°C
Wind Pressure Rain
since 9am
mm
Weather Cloud Vis
km
Sea
Height
m
Swell
Dir
 
Speed
knots
Gust
knots
hPa Trend Height
m
Period
s
Dir
22/11:30pm 15.3 SSW 10 13 1018.6 - 0.0 - Cloudy 10 - - - -
22/11:00pm 15.7 SSW 11 15 1018.0 - 0.0 - Partly cloudy 10 - - - -
22/10:30pm 15.9 SSW 15 18 1018.4 - 0.0 - - 10 - - - -
22/10:00pm 15.4 SSW 11 14 1018.4 - 0.0 - - 10 - - - -
22/09:30pm 16.2 SSW 12 16 1018.1 - 0.0 - Partly cloudy 10 - - - -
22/09:00pm 17.5 SSW 12 16 1017.9 - 0.0 - Cloudy 10 - - - -
22/08:30pm 19.0 SSW 13 18 1016.8 - 0.0 - Partly cloudy 10 - - - -
22/08:00pm 19.9 SSW 13 17 1015.9 - 0.0 - - 10 - - - -
22/07:30pm 20.6 SSW 15 20 1015.4 - 0.0 - - 10 - - - -
22/07:00pm 22.9 SSW 16 23 1014.6 - 0.0 - - 10 - - - -
22/06:30pm 26.1 SSW 15 20 1014.0 - 0.0 - - 10 - - - -
22/06:00pm 30.8 ESE 4 5 1013.7 - 0.0 - Cloudy 10 - - - -
22/05:30pm 29.6 ESE 5 6 1013.6 - 0.0 - - 10 - - - -
22/05:00pm 31.8 N 3 5 1013.7 - 0.0 - - 10 - - - -
22/04:30pm 30.5 S 5 6 1014.2 - 0.0 - Partly cloudy 10 - - - -
22/04:00pm 31.0 E 10 11 1014.2 - 0.0 - - 10 - - - -
22/03:30pm 31.5 E 9 12 1014.4 - 0.0 - - 10 - - - -
22/03:00pm 31.8 E 10 13 1014.6 - 0.0 - Cloudy 10 - - - -
22/02:30pm 31.3 E 12 15 1014.9 - 0.0 - - 10 - - - -
22/02:00pm 31.7 E 10 13 1015.2 - 0.0 - - 10 - - - -
22/01:30pm 31.6 SE 7 14 1015.5 - 0.0 - - 10 - - - -
22/01:00pm 32.5 NW 5 8 1015.7 - 0.0 - - 10 - - - -
22/12:30pm 32.9 W 2 6 1016.2 - 0.0 - - 10 - - - -
22/12:00pm 31.0 SW 5 7 1016.7 - 0.0 - Mostly clear 10 - - - -
22/11:30am 29.7 W 3 5 1017.3 - 0.0 - - 10 - - - -
22/11:00am 28.8 WSW 4 6 1017.7 - 0.0 - - 10 - - - -
22/10:30am 27.8 NNE 6 8 1018.2 - 0.0 - - 10 - - - -

Other Formats:

Comma delimited format used in spreadsheet applications
http://www.bom.gov.au/fwo/IDV60701/IDV60701.94854.axf

JavaScript Object Notation format (JSON) in row-major order
http://www.bom.gov.au/fwo/IDV60701/IDV60701.94854.json